sensor_id;sensor_type;location;lat;lon;timestamp;P1;durP1;ratioP1;P2;durP2;ratioP2
60370;SDS011;48550;40.588;49.684;2023-03-04T00:00:37;28.00;;;10.10;;
60370;SDS011;48550;40.588;49.684;2023-03-04T00:03:07;19.48;;;9.50;;
60370;SDS011;48550;40.588;49.684;2023-03-04T00:05:35;23.02;;;10.18;;
60370;SDS011;48550;40.588;49.684;2023-03-04T00:08:02;18.60;;;10.15;;
60370;SDS011;48550;40.588;49.684;2023-03-04T00:10:28;22.75;;;10.20;;
60370;SDS011;48550;40.588;49.684;2023-03-04T00:12:53;18.40;;;9.75;;
60370;SDS011;48550;40.588;49.684;2023-03-04T00:15:19;19.20;;;11.68;;
60370;SDS011;48550;40.588;49.684;2023-03-04T00:17:45;17.42;;;9.05;;
60370;SDS011;48550;40.588;49.684;2023-03-04T00:20:11;17.13;;;9.70;;
60370;SDS011;48550;40.588;49.684;2023-03-04T00:22:37;19.75;;;11.18;;
60370;SDS011;48550;40.588;49.684;2023-03-04T00:25:03;16.73;;;9.32;;
60370;SDS011;48550;40.588;49.684;2023-03-04T00:27:29;16.15;;;9.38;;
60370;SDS011;48550;40.588;49.684;2023-03-04T00:29:55;15.02;;;8.65;;
60370;SDS011;48550;40.588;49.684;2023-03-04T00:32:21;17.60;;;10.32;;
60370;SDS011;48550;40.588;49.684;2023-03-04T00:34:47;23.83;;;9.48;;
60370;SDS011;48550;40.588;49.684;2023-03-04T00:37:13;38.83;;;9.02;;
60370;SDS011;48550;40.588;49.684;2023-03-04T00:39:39;16.13;;;8.48;;
60370;SDS011;48550;40.588;49.684;2023-03-04T00:42:04;23.45;;;9.63;;
60370;SDS011;48550;40.588;49.684;2023-03-04T00:44:30;19.17;;;12.10;;
60370;SDS011;48550;40.588;49.684;2023-03-04T00:46:56;16.88;;;10.73;;
60370;SDS011;48550;40.588;49.684;2023-03-04T00:49:22;24.17;;;9.43;;
60370;SDS011;48550;40.588;49.684;2023-03-04T00:51:47;21.17;;;10.85;;
60370;SDS011;48550;40.588;49.684;2023-03-04T00:54:13;18.83;;;8.75;;
60370;SDS011;48550;40.588;49.684;2023-03-04T00:56:39;14.77;;;8.20;;
60370;SDS011;48550;40.588;49.684;2023-03-04T00:59:04;16.23;;;8.27;;
60370;SDS011;48550;40.588;49.684;2023-03-04T01:01:30;15.75;;;6.90;;
60370;SDS011;48550;40.588;49.684;2023-03-04T01:03:56;17.67;;;9.25;;
60370;SDS011;48550;40.588;49.684;2023-03-04T01:06:21;18.83;;;9.80;;
60370;SDS011;48550;40.588;49.684;2023-03-04T01:08:47;13.75;;;8.38;;
60370;SDS011;48550;40.588;49.684;2023-03-04T01:11:13;15.73;;;8.43;;
60370;SDS011;48550;40.588;49.684;2023-03-04T01:13:39;16.85;;;7.45;;
60370;SDS011;48550;40.588;49.684;2023-03-04T01:16:05;14.10;;;7.78;;
60370;SDS011;48550;40.588;49.684;2023-03-04T01:18:31;14.90;;;9.50;;
60370;SDS011;48550;40.588;49.684;2023-03-04T01:20:58;16.90;;;7.78;;
60370;SDS011;48550;40.588;49.684;2023-03-04T01:23:23;14.52;;;7.50;;
60370;SDS011;48550;40.588;49.684;2023-03-04T01:25:49;13.85;;;7.88;;
60370;SDS011;48550;40.588;49.684;2023-03-04T01:28:15;14.63;;;8.10;;
60370;SDS011;48550;40.588;49.684;2023-03-04T01:30:41;13.38;;;8.00;;
60370;SDS011;48550;40.588;49.684;2023-03-04T01:33:06;15.77;;;6.97;;
60370;SDS011;48550;40.588;49.684;2023-03-04T01:35:32;14.02;;;8.07;;
60370;SDS011;48550;40.588;49.684;2023-03-04T01:37:58;19.55;;;10.35;;
60370;SDS011;48550;40.588;49.684;2023-03-04T01:40:23;18.33;;;9.10;;
60370;SDS011;48550;40.588;49.684;2023-03-04T01:42:49;19.05;;;9.05;;
60370;SDS011;48550;40.588;49.684;2023-03-04T01:45:16;17.65;;;9.52;;
60370;SDS011;48550;40.588;49.684;2023-03-04T01:47:45;14.43;;;8.13;;
60370;SDS011;48550;40.588;49.684;2023-03-04T01:50:20;18.02;;;8.85;;
60370;SDS011;48550;40.588;49.684;2023-03-04T01:52:49;15.23;;;9.30;;
60370;SDS011;48550;40.588;49.684;2023-03-04T01:55:16;15.73;;;7.82;;
60370;SDS011;48550;40.588;49.684;2023-03-04T01:57:44;19.75;;;8.88;;
60370;SDS011;48550;40.588;49.684;2023-03-04T02:02:44;16.33;;;8.20;;
60370;SDS011;48550;40.588;49.684;2023-03-04T02:05:10;13.18;;;6.43;;
60370;SDS011;48550;40.588;49.684;2023-03-04T02:07:37;12.00;;;6.40;;
60370;SDS011;48550;40.588;49.684;2023-03-04T02:10:02;14.40;;;5.47;;
60370;SDS011;48550;40.588;49.684;2023-03-04T02:12:29;11.00;;;5.85;;
60370;SDS011;48550;40.588;49.684;2023-03-04T02:14:54;14.68;;;7.20;;
60370;SDS011;48550;40.588;49.684;2023-03-04T02:17:24;17.80;;;8.15;;
60370;SDS011;48550;40.588;49.684;2023-03-04T02:20:14;15.32;;;7.47;;
60370;SDS011;48550;40.588;49.684;2023-03-04T02:22:37;15.27;;;7.90;;
60370;SDS011;48550;40.588;49.684;2023-03-04T02:25:09;15.73;;;6.82;;
60370;SDS011;48550;40.588;49.684;2023-03-04T02:27:39;17.45;;;9.70;;
60370;SDS011;48550;40.588;49.684;2023-03-04T02:30:05;15.43;;;7.78;;
60370;SDS011;48550;40.588;49.684;2023-03-04T02:32:31;16.52;;;7.55;;
60370;SDS011;48550;40.588;49.684;2023-03-04T02:34:57;13.10;;;7.28;;
60370;SDS011;48550;40.588;49.684;2023-03-04T02:37:23;11.20;;;6.75;;
60370;SDS011;48550;40.588;49.684;2023-03-04T02:39:49;14.70;;;8.05;;
60370;SDS011;48550;40.588;49.684;2023-03-04T02:42:15;20.70;;;8.25;;
60370;SDS011;48550;40.588;49.684;2023-03-04T02:44:43;23.67;;;9.55;;
60370;SDS011;48550;40.588;49.684;2023-03-04T02:47:13;14.63;;;8.00;;
60370;SDS011;48550;40.588;49.684;2023-03-04T02:49:41;20.55;;;8.85;;
60370;SDS011;48550;40.588;49.684;2023-03-04T02:52:09;17.50;;;7.43;;
60370;SDS011;48550;40.588;49.684;2023-03-04T02:54:39;14.00;;;7.82;;
60370;SDS011;48550;40.588;49.684;2023-03-04T02:57:06;11.07;;;6.90;;
60370;SDS011;48550;40.588;49.684;2023-03-04T02:59:34;10.63;;;5.55;;
60370;SDS011;48550;40.588;49.684;2023-03-04T03:02:00;18.45;;;8.18;;
60370;SDS011;48550;40.588;49.684;2023-03-04T03:04:26;12.50;;;6.93;;
60370;SDS011;48550;40.588;49.684;2023-03-04T03:06:52;18.55;;;6.68;;
60370;SDS011;48550;40.588;49.684;2023-03-04T03:09:18;18.63;;;7.72;;
60370;SDS011;48550;40.588;49.684;2023-03-04T03:11:45;10.93;;;6.50;;
60370;SDS011;48550;40.588;49.684;2023-03-04T03:14:10;15.73;;;6.00;;
60370;SDS011;48550;40.588;49.684;2023-03-04T03:16:36;15.18;;;8.40;;
60370;SDS011;48550;40.588;49.684;2023-03-04T03:19:02;18.67;;;8.68;;
60370;SDS011;48550;40.588;49.684;2023-03-04T03:21:28;18.08;;;7.95;;
60370;SDS011;48550;40.588;49.684;2023-03-04T03:23:53;13.57;;;7.57;;
60370;SDS011;48550;40.588;49.684;2023-03-04T03:26:19;18.55;;;8.40;;
60370;SDS011;48550;40.588;49.684;2023-03-04T03:28:45;16.05;;;8.15;;
60370;SDS011;48550;40.588;49.684;2023-03-04T03:31:11;17.60;;;7.20;;
60370;SDS011;48550;40.588;49.684;2023-03-04T03:33:38;17.50;;;7.88;;
60370;SDS011;48550;40.588;49.684;2023-03-04T03:36:03;17.05;;;7.45;;
60370;SDS011;48550;40.588;49.684;2023-03-04T03:38:30;13.45;;;6.80;;
60370;SDS011;48550;40.588;49.684;2023-03-04T03:40:55;12.43;;;6.78;;
60370;SDS011;48550;40.588;49.684;2023-03-04T03:43:21;11.80;;;6.30;;
60370;SDS011;48550;40.588;49.684;2023-03-04T03:45:47;15.80;;;8.00;;
60370;SDS011;48550;40.588;49.684;2023-03-04T03:48:16;21.25;;;8.77;;
60370;SDS011;48550;40.588;49.684;2023-03-04T03:50:42;18.90;;;8.50;;
60370;SDS011;48550;40.588;49.684;2023-03-04T03:53:07;16.25;;;8.60;;
60370;SDS011;48550;40.588;49.684;2023-03-04T03:55:33;20.67;;;8.95;;
60370;SDS011;48550;40.588;49.684;2023-03-04T03:57:59;17.80;;;7.55;;
60370;SDS011;48550;40.588;49.684;2023-03-04T04:00:24;19.63;;;8.27;;
60370;SDS011;48550;40.588;49.684;2023-03-04T04:02:51;19.50;;;8.30;;
60370;SDS011;48550;40.588;49.684;2023-03-04T04:05:19;16.77;;;7.53;;
60370;SDS011;48550;40.588;49.684;2023-03-04T04:07:45;21.63;;;8.27;;
60370;SDS011;48550;40.588;49.684;2023-03-04T04:10:11;16.50;;;7.88;;
60370;SDS011;48550;40.588;49.684;2023-03-04T04:12:36;16.63;;;7.72;;
60370;SDS011;48550;40.588;49.684;2023-03-04T04:15:02;19.83;;;8.52;;
60370;SDS011;48550;40.588;49.684;2023-03-04T04:17:28;17.25;;;7.45;;
60370;SDS011;48550;40.588;49.684;2023-03-04T04:19:54;18.48;;;8.07;;
60370;SDS011;48550;40.588;49.684;2023-03-04T04:22:20;20.67;;;7.82;;
60370;SDS011;48550;40.588;49.684;2023-03-04T04:24:46;14.13;;;7.32;;
60370;SDS011;48550;40.588;49.684;2023-03-04T04:27:13;19.88;;;9.13;;
60370;SDS011;48550;40.588;49.684;2023-03-04T04:29:39;13.55;;;6.90;;
60370;SDS011;48550;40.588;49.684;2023-03-04T04:32:05;18.60;;;7.53;;
60370;SDS011;48550;40.588;49.684;2023-03-04T04:34:31;15.52;;;7.72;;
60370;SDS011;48550;40.588;49.684;2023-03-04T04:36:57;17.77;;;7.10;;
60370;SDS011;48550;40.588;49.684;2023-03-04T04:39:23;19.55;;;8.10;;
60370;SDS011;48550;40.588;49.684;2023-03-04T04:41:48;16.85;;;7.65;;
60370;SDS011;48550;40.588;49.684;2023-03-04T04:44:14;15.77;;;7.40;;
60370;SDS011;48550;40.588;49.684;2023-03-04T04:46:40;16.40;;;7.45;;
60370;SDS011;48550;40.588;49.684;2023-03-04T04:49:07;17.90;;;7.20;;
60370;SDS011;48550;40.588;49.684;2023-03-04T04:51:33;18.95;;;8.20;;
60370;SDS011;48550;40.588;49.684;2023-03-04T04:54:01;27.25;;;8.57;;
60370;SDS011;48550;40.588;49.684;2023-03-04T04:56:27;22.88;;;8.52;;
60370;SDS011;48550;40.588;49.684;2023-03-04T04:58:55;23.42;;;9.02;;
60370;SDS011;48550;40.588;49.684;2023-03-04T05:01:23;18.27;;;9.02;;
60370;SDS011;48550;40.588;49.684;2023-03-04T05:03:50;18.85;;;8.65;;
60370;SDS011;48550;40.588;49.684;2023-03-04T05:06:17;38.20;;;9.60;;
60370;SDS011;48550;40.588;49.684;2023-03-04T05:08:43;21.05;;;9.55;;
60370;SDS011;48550;40.588;49.684;2023-03-04T05:11:09;32.72;;;16.92;;
60370;SDS011;48550;40.588;49.684;2023-03-04T05:13:35;22.92;;;9.73;;
60370;SDS011;48550;40.588;49.684;2023-03-04T05:16:01;25.65;;;11.68;;
60370;SDS011;48550;40.588;49.684;2023-03-04T05:18:27;14.95;;;7.97;;
60370;SDS011;48550;40.588;49.684;2023-03-04T05:20:53;15.57;;;7.60;;
60370;SDS011;48550;40.588;49.684;2023-03-04T05:23:21;14.13;;;6.72;;
60370;SDS011;48550;40.588;49.684;2023-03-04T05:25:47;17.45;;;7.22;;
60370;SDS011;48550;40.588;49.684;2023-03-04T05:28:13;16.77;;;6.88;;
60370;SDS011;48550;40.588;49.684;2023-03-04T05:30:40;12.57;;;5.57;;
60370;SDS011;48550;40.588;49.684;2023-03-04T05:33:08;17.30;;;7.00;;
60370;SDS011;48550;40.588;49.684;2023-03-04T05:35:35;18.02;;;7.72;;
60370;SDS011;48550;40.588;49.684;2023-03-04T05:38:03;11.05;;;6.30;;
60370;SDS011;48550;40.588;49.684;2023-03-04T05:40:30;14.77;;;6.40;;
60370;SDS011;48550;40.588;49.684;2023-03-04T05:42:56;14.50;;;6.53;;
60370;SDS011;48550;40.588;49.684;2023-03-04T05:45:22;16.08;;;6.30;;
60370;SDS011;48550;40.588;49.684;2023-03-04T05:47:48;14.52;;;6.03;;
60370;SDS011;48550;40.588;49.684;2023-03-04T05:50:14;15.27;;;5.80;;
60370;SDS011;48550;40.588;49.684;2023-03-04T05:52:40;12.93;;;5.93;;
60370;SDS011;48550;40.588;49.684;2023-03-04T05:55:06;13.60;;;5.43;;
60370;SDS011;48550;40.588;49.684;2023-03-04T05:57:32;10.35;;;5.00;;
60370;SDS011;48550;40.588;49.684;2023-03-04T05:59:58;11.13;;;5.30;;
60370;SDS011;48550;40.588;49.684;2023-03-04T06:02:23;10.63;;;5.55;;
60370;SDS011;48550;40.588;49.684;2023-03-04T06:04:49;10.60;;;4.82;;
60370;SDS011;48550;40.588;49.684;2023-03-04T06:07:15;21.17;;;7.40;;
60370;SDS011;48550;40.588;49.684;2023-03-04T06:09:41;17.38;;;5.90;;
60370;SDS011;48550;40.588;49.684;2023-03-04T06:12:09;14.52;;;5.72;;
60370;SDS011;48550;40.588;49.684;2023-03-04T06:14:35;10.38;;;5.32;;
60370;SDS011;48550;40.588;49.684;2023-03-04T06:17:01;17.95;;;5.15;;
60370;SDS011;48550;40.588;49.684;2023-03-04T06:19:27;13.57;;;4.80;;
60370;SDS011;48550;40.588;49.684;2023-03-04T06:21:53;15.80;;;7.28;;
60370;SDS011;48550;40.588;49.684;2023-03-04T06:24:19;10.35;;;5.15;;
60370;SDS011;48550;40.588;49.684;2023-03-04T06:26:45;9.75;;;5.40;;
60370;SDS011;48550;40.588;49.684;2023-03-04T06:29:11;10.90;;;4.65;;
60370;SDS011;48550;40.588;49.684;2023-03-04T06:31:37;10.77;;;5.07;;
60370;SDS011;48550;40.588;49.684;2023-03-04T06:34:03;9.68;;;5.28;;
60370;SDS011;48550;40.588;49.684;2023-03-04T06:36:29;13.48;;;5.05;;
60370;SDS011;48550;40.588;49.684;2023-03-04T06:38:55;15.38;;;6.78;;
60370;SDS011;48550;40.588;49.684;2023-03-04T06:41:21;7.45;;;4.15;;
60370;SDS011;48550;40.588;49.684;2023-03-04T06:43:46;6.28;;;4.22;;
60370;SDS011;48550;40.588;49.684;2023-03-04T06:46:12;7.07;;;4.40;;
60370;SDS011;48550;40.588;49.684;2023-03-04T06:48:38;10.10;;;6.05;;
60370;SDS011;48550;40.588;49.684;2023-03-04T06:51:04;9.00;;;4.93;;
60370;SDS011;48550;40.588;49.684;2023-03-04T06:53:34;12.65;;;6.53;;
60370;SDS011;48550;40.588;49.684;2023-03-04T06:56:01;9.88;;;4.72;;
60370;SDS011;48550;40.588;49.684;2023-03-04T06:58:27;9.80;;;5.00;;
60370;SDS011;48550;40.588;49.684;2023-03-04T07:00:53;10.48;;;5.53;;
60370;SDS011;48550;40.588;49.684;2023-03-04T07:03:19;12.00;;;5.95;;
60370;SDS011;48550;40.588;49.684;2023-03-04T07:05:45;10.43;;;4.63;;
60370;SDS011;48550;40.588;49.684;2023-03-04T07:08:11;7.45;;;3.95;;
60370;SDS011;48550;40.588;49.684;2023-03-04T07:10:36;9.23;;;4.43;;
60370;SDS011;48550;40.588;49.684;2023-03-04T07:13:02;10.27;;;6.10;;
60370;SDS011;48550;40.588;49.684;2023-03-04T07:15:28;9.80;;;4.88;;
60370;SDS011;48550;40.588;49.684;2023-03-04T07:17:54;7.40;;;4.60;;
60370;SDS011;48550;40.588;49.684;2023-03-04T07:20:20;11.55;;;4.82;;
60370;SDS011;48550;40.588;49.684;2023-03-04T07:22:46;11.65;;;4.55;;
60370;SDS011;48550;40.588;49.684;2023-03-04T07:25:12;12.05;;;5.07;;
60370;SDS011;48550;40.588;49.684;2023-03-04T07:27:37;7.90;;;4.30;;
60370;SDS011;48550;40.588;49.684;2023-03-04T07:30:05;10.30;;;4.75;;
60370;SDS011;48550;40.588;49.684;2023-03-04T07:32:31;8.63;;;4.38;;
60370;SDS011;48550;40.588;49.684;2023-03-04T07:34:58;7.55;;;3.95;;
60370;SDS011;48550;40.588;49.684;2023-03-04T07:37:24;10.60;;;4.22;;
60370;SDS011;48550;40.588;49.684;2023-03-04T07:39:50;6.38;;;3.97;;
60370;SDS011;48550;40.588;49.684;2023-03-04T07:42:15;10.77;;;4.53;;
60370;SDS011;48550;40.588;49.684;2023-03-04T07:44:41;9.10;;;5.63;;
60370;SDS011;48550;40.588;49.684;2023-03-04T07:47:07;8.30;;;4.43;;
60370;SDS011;48550;40.588;49.684;2023-03-04T07:49:32;7.90;;;4.55;;
60370;SDS011;48550;40.588;49.684;2023-03-04T07:52:01;10.88;;;4.53;;
60370;SDS011;48550;40.588;49.684;2023-03-04T07:54:30;7.18;;;4.15;;
60370;SDS011;48550;40.588;49.684;2023-03-04T07:56:57;6.80;;;4.30;;
60370;SDS011;48550;40.588;49.684;2023-03-04T07:59:22;10.60;;;4.43;;
60370;SDS011;48550;40.588;49.684;2023-03-04T08:01:48;8.10;;;4.00;;
60370;SDS011;48550;40.588;49.684;2023-03-04T08:04:14;8.50;;;4.40;;
60370;SDS011;48550;40.588;49.684;2023-03-04T08:06:40;10.60;;;4.53;;
60370;SDS011;48550;40.588;49.684;2023-03-04T08:09:07;12.60;;;5.30;;
60370;SDS011;48550;40.588;49.684;2023-03-04T08:11:35;12.77;;;5.32;;
60370;SDS011;48550;40.588;49.684;2023-03-04T08:14:02;11.00;;;4.55;;
60370;SDS011;48550;40.588;49.684;2023-03-04T08:16:28;8.05;;;4.18;;
60370;SDS011;48550;40.588;49.684;2023-03-04T08:18:55;8.68;;;4.40;;
60370;SDS011;48550;40.588;49.684;2023-03-04T08:21:23;7.80;;;4.30;;
60370;SDS011;48550;40.588;49.684;2023-03-04T08:23:50;8.73;;;4.38;;
60370;SDS011;48550;40.588;49.684;2023-03-04T08:28:54;9.07;;;4.30;;
60370;SDS011;48550;40.588;49.684;2023-03-04T08:31:20;6.72;;;4.50;;
60370;SDS011;48550;40.588;49.684;2023-03-04T08:33:46;11.75;;;4.95;;
60370;SDS011;48550;40.588;49.684;2023-03-04T08:36:12;7.03;;;3.70;;
60370;SDS011;48550;40.588;49.684;2023-03-04T08:38:39;8.40;;;4.80;;
60370;SDS011;48550;40.588;49.684;2023-03-04T08:41:04;9.30;;;5.15;;
60370;SDS011;48550;40.588;49.684;2023-03-04T08:43:30;11.02;;;4.30;;
60370;SDS011;48550;40.588;49.684;2023-03-04T08:45:57;8.18;;;4.38;;
60370;SDS011;48550;40.588;49.684;2023-03-04T08:48:24;7.35;;;4.00;;
60370;SDS011;48550;40.588;49.684;2023-03-04T08:50:51;8.65;;;4.22;;
60370;SDS011;48550;40.588;49.684;2023-03-04T08:53:17;8.85;;;4.18;;
60370;SDS011;48550;40.588;49.684;2023-03-04T08:55:44;8.85;;;4.47;;
60370;SDS011;48550;40.588;49.684;2023-03-04T08:58:10;8.30;;;4.68;;
60370;SDS011;48550;40.588;49.684;2023-03-04T09:00:37;8.65;;;4.03;;
60370;SDS011;48550;40.588;49.684;2023-03-04T09:03:07;6.95;;;4.25;;
60370;SDS011;48550;40.588;49.684;2023-03-04T09:05:34;5.95;;;3.30;;
60370;SDS011;48550;40.588;49.684;2023-03-04T09:08:00;7.60;;;4.82;;
60370;SDS011;48550;40.588;49.684;2023-03-04T09:10:26;5.22;;;2.72;;
60370;SDS011;48550;40.588;49.684;2023-03-04T09:12:52;9.07;;;3.65;;
60370;SDS011;48550;40.588;49.684;2023-03-04T09:15:18;8.38;;;3.88;;
60370;SDS011;48550;40.588;49.684;2023-03-04T09:17:44;6.60;;;3.88;;
60370;SDS011;48550;40.588;49.684;2023-03-04T09:20:10;4.95;;;3.05;;
60370;SDS011;48550;40.588;49.684;2023-03-04T09:22:37;8.93;;;4.53;;
60370;SDS011;48550;40.588;49.684;2023-03-04T09:25:03;9.82;;;4.85;;
60370;SDS011;48550;40.588;49.684;2023-03-04T09:27:29;7.68;;;3.42;;
60370;SDS011;48550;40.588;49.684;2023-03-04T09:29:55;5.70;;;3.08;;
60370;SDS011;48550;40.588;49.684;2023-03-04T09:32:21;12.32;;;5.25;;
60370;SDS011;48550;40.588;49.684;2023-03-04T09:34:46;6.78;;;3.40;;
60370;SDS011;48550;40.588;49.684;2023-03-04T09:37:12;4.82;;;3.05;;
60370;SDS011;48550;40.588;49.684;2023-03-04T09:39:38;6.40;;;4.00;;
60370;SDS011;48550;40.588;49.684;2023-03-04T09:42:03;7.10;;;4.47;;
60370;SDS011;48550;40.588;49.684;2023-03-04T09:44:41;11.60;;;4.60;;
60370;SDS011;48550;40.588;49.684;2023-03-04T09:47:11;6.45;;;4.18;;
60370;SDS011;48550;40.588;49.684;2023-03-04T09:49:41;5.25;;;2.63;;
60370;SDS011;48550;40.588;49.684;2023-03-04T09:52:28;7.35;;;3.80;;
60370;SDS011;48550;40.588;49.684;2023-03-04T09:55:04;6.18;;;3.47;;
60370;SDS011;48550;40.588;49.684;2023-03-04T09:57:43;7.10;;;3.97;;
60370;SDS011;48550;40.588;49.684;2023-03-04T10:00:15;6.78;;;3.78;;
60370;SDS011;48550;40.588;49.684;2023-03-04T10:05:27;9.20;;;4.85;;
60370;SDS011;48550;40.588;49.684;2023-03-04T10:08:44;6.95;;;3.78;;
60370;SDS011;48550;40.588;49.684;2023-03-04T10:11:10;8.90;;;4.57;;
60370;SDS011;48550;40.588;49.684;2023-03-04T10:16:50;8.07;;;3.78;;
60370;SDS011;48550;40.588;49.684;2023-03-04T10:20:01;8.13;;;3.85;;
60370;SDS011;48550;40.588;49.684;2023-03-04T10:22:34;4.85;;;3.05;;
60370;SDS011;48550;40.588;49.684;2023-03-04T10:25:21;8.82;;;3.50;;
60370;SDS011;48550;40.588;49.684;2023-03-04T10:27:56;7.53;;;3.85;;
60370;SDS011;48550;40.588;49.684;2023-03-04T10:30:38;8.15;;;4.03;;
60370;SDS011;48550;40.588;49.684;2023-03-04T10:35:44;6.57;;;3.58;;
60370;SDS011;48550;40.588;49.684;2023-03-04T10:38:13;7.75;;;3.00;;
60370;SDS011;48550;40.588;49.684;2023-03-04T10:40:40;7.15;;;3.75;;
60370;SDS011;48550;40.588;49.684;2023-03-04T10:43:17;5.72;;;3.25;;
60370;SDS011;48550;40.588;49.684;2023-03-04T10:45:45;8.27;;;3.40;;
60370;SDS011;48550;40.588;49.684;2023-03-04T10:48:24;10.50;;;4.15;;
60370;SDS011;48550;40.588;49.684;2023-03-04T10:57:19;9.18;;;4.00;;
60370;SDS011;48550;40.588;49.684;2023-03-04T10:59:54;10.20;;;3.58;;
60370;SDS011;48550;40.588;49.684;2023-03-04T11:04:53;9.57;;;3.95;;
60370;SDS011;48550;40.588;49.684;2023-03-04T11:07:30;6.18;;;3.55;;
60370;SDS011;48550;40.588;49.684;2023-03-04T11:10:08;7.25;;;4.10;;
60370;SDS011;48550;40.588;49.684;2023-03-04T11:12:34;7.80;;;3.63;;
60370;SDS011;48550;40.588;49.684;2023-03-04T11:15:00;8.38;;;4.55;;
60370;SDS011;48550;40.588;49.684;2023-03-04T11:17:28;7.38;;;4.18;;
60370;SDS011;48550;40.588;49.684;2023-03-04T11:22:50;10.27;;;4.00;;
60370;SDS011;48550;40.588;49.684;2023-03-04T11:25:29;8.13;;;4.40;;
60370;SDS011;48550;40.588;49.684;2023-03-04T11:30:43;10.55;;;4.18;;
60370;SDS011;48550;40.588;49.684;2023-03-04T11:33:16;8.55;;;4.20;;
60370;SDS011;48550;40.588;49.684;2023-03-04T11:41:12;6.50;;;3.08;;
60370;SDS011;48550;40.588;49.684;2023-03-04T11:43:44;7.25;;;3.60;;
60370;SDS011;48550;40.588;49.684;2023-03-04T11:51:20;5.38;;;2.72;;
60370;SDS011;48550;40.588;49.684;2023-03-04T11:56:52;3.88;;;2.58;;
60370;SDS011;48550;40.588;49.684;2023-03-04T11:59:39;5.78;;;3.03;;
60370;SDS011;48550;40.588;49.684;2023-03-04T12:02:31;5.15;;;2.63;;
60370;SDS011;48550;40.588;49.684;2023-03-04T12:05:18;5.85;;;3.13;;
60370;SDS011;48550;40.588;49.684;2023-03-04T12:07:52;12.02;;;3.58;;
60370;SDS011;48550;40.588;49.684;2023-03-04T12:21:13;7.32;;;3.78;;
60370;SDS011;48550;40.588;49.684;2023-03-04T12:32:02;6.03;;;3.22;;
60370;SDS011;48550;40.588;49.684;2023-03-04T12:40:11;8.02;;;3.13;;
60370;SDS011;48550;40.588;49.684;2023-03-04T12:46:10;6.20;;;3.42;;
60370;SDS011;48550;40.588;49.684;2023-03-04T12:52:09;9.70;;;4.50;;
60370;SDS011;48550;40.588;49.684;2023-03-04T12:54:50;6.85;;;3.60;;
60370;SDS011;48550;40.588;49.684;2023-03-04T12:57:25;8.65;;;4.10;;
60370;SDS011;48550;40.588;49.684;2023-03-04T13:02:48;9.95;;;4.45;;
60370;SDS011;48550;40.588;49.684;2023-03-04T13:16:45;10.02;;;4.72;;
60370;SDS011;48550;40.588;49.684;2023-03-04T13:27:49;8.52;;;5.38;;
60370;SDS011;48550;40.588;49.684;2023-03-04T13:51:35;12.32;;;4.30;;
60370;SDS011;48550;40.588;49.684;2023-03-04T14:02:21;9.85;;;4.63;;
60370;SDS011;48550;40.588;49.684;2023-03-04T14:12:23;13.75;;;5.55;;
60370;SDS011;48550;40.588;49.684;2023-03-04T14:14:51;13.00;;;4.82;;
60370;SDS011;48550;40.588;49.684;2023-03-04T14:17:30;14.60;;;5.82;;
60370;SDS011;48550;40.588;49.684;2023-03-04T14:20:04;11.43;;;4.55;;
60370;SDS011;48550;40.588;49.684;2023-03-04T14:22:45;10.75;;;4.78;;
60370;SDS011;48550;40.588;49.684;2023-03-04T14:27:43;12.77;;;5.28;;
60370;SDS011;48550;40.588;49.684;2023-03-04T14:30:21;11.55;;;5.00;;
60370;SDS011;48550;40.588;49.684;2023-03-04T14:32:55;10.35;;;5.00;;
60370;SDS011;48550;40.588;49.684;2023-03-04T14:35:29;10.65;;;4.72;;
60370;SDS011;48550;40.588;49.684;2023-03-04T14:40:56;12.13;;;4.95;;
60370;SDS011;48550;40.588;49.684;2023-03-04T14:43:27;11.05;;;4.45;;
60370;SDS011;48550;40.588;49.684;2023-03-04T14:45:56;10.73;;;4.18;;
60370;SDS011;48550;40.588;49.684;2023-03-04T14:48:31;14.70;;;5.75;;
60370;SDS011;48550;40.588;49.684;2023-03-04T14:50:58;11.48;;;4.63;;
60370;SDS011;48550;40.588;49.684;2023-03-04T14:53:26;12.40;;;5.05;;
60370;SDS011;48550;40.588;49.684;2023-03-04T14:55:58;11.23;;;4.97;;
60370;SDS011;48550;40.588;49.684;2023-03-04T14:58:35;12.85;;;4.95;;
60370;SDS011;48550;40.588;49.684;2023-03-04T15:01:03;15.40;;;5.40;;
60370;SDS011;48550;40.588;49.684;2023-03-04T15:06:29;8.48;;;4.85;;
60370;SDS011;48550;40.588;49.684;2023-03-04T15:11:27;11.23;;;4.68;;
60370;SDS011;48550;40.588;49.684;2023-03-04T15:13:57;10.57;;;5.15;;
60370;SDS011;48550;40.588;49.684;2023-03-04T15:16:25;11.70;;;5.25;;
60370;SDS011;48550;40.588;49.684;2023-03-04T15:18:58;17.10;;;5.40;;
60370;SDS011;48550;40.588;49.684;2023-03-04T15:21:33;10.98;;;4.68;;
60370;SDS011;48550;40.588;49.684;2023-03-04T15:24:06;11.55;;;4.95;;
60370;SDS011;48550;40.588;49.684;2023-03-04T15:26:36;10.38;;;4.78;;
60370;SDS011;48550;40.588;49.684;2023-03-04T15:29:15;11.05;;;5.68;;
60370;SDS011;48550;40.588;49.684;2023-03-04T15:31:42;9.52;;;4.57;;
60370;SDS011;48550;40.588;49.684;2023-03-04T15:34:12;11.38;;;5.00;;
60370;SDS011;48550;40.588;49.684;2023-03-04T15:36:45;9.13;;;4.22;;
60370;SDS011;48550;40.588;49.684;2023-03-04T15:39:14;9.77;;;4.25;;
60370;SDS011;48550;40.588;49.684;2023-03-04T15:41:42;13.25;;;5.90;;
60370;SDS011;48550;40.588;49.684;2023-03-04T15:44:08;10.75;;;5.35;;
60370;SDS011;48550;40.588;49.684;2023-03-04T15:46:36;12.48;;;5.15;;
60370;SDS011;48550;40.588;49.684;2023-03-04T15:49:02;10.43;;;4.07;;
60370;SDS011;48550;40.588;49.684;2023-03-04T15:51:28;9.43;;;5.05;;
60370;SDS011;48550;40.588;49.684;2023-03-04T15:53:54;13.23;;;4.40;;
60370;SDS011;48550;40.588;49.684;2023-03-04T15:56:23;11.10;;;5.03;;
60370;SDS011;48550;40.588;49.684;2023-03-04T15:59:02;8.25;;;4.38;;
60370;SDS011;48550;40.588;49.684;2023-03-04T16:01:31;11.93;;;4.70;;
60370;SDS011;48550;40.588;49.684;2023-03-04T16:03:56;13.35;;;5.15;;
60370;SDS011;48550;40.588;49.684;2023-03-04T16:06:23;10.82;;;4.28;;
60370;SDS011;48550;40.588;49.684;2023-03-04T16:08:52;7.80;;;4.28;;
60370;SDS011;48550;40.588;49.684;2023-03-04T16:11:22;10.32;;;4.65;;
60370;SDS011;48550;40.588;49.684;2023-03-04T16:13:50;10.63;;;5.05;;
60370;SDS011;48550;40.588;49.684;2023-03-04T16:16:16;13.63;;;5.60;;
60370;SDS011;48550;40.588;49.684;2023-03-04T16:18:42;10.20;;;5.00;;
60370;SDS011;48550;40.588;49.684;2023-03-04T16:21:13;12.57;;;5.13;;
60370;SDS011;48550;40.588;49.684;2023-03-04T16:23:42;12.48;;;5.25;;
60370;SDS011;48550;40.588;49.684;2023-03-04T16:26:11;9.93;;;4.70;;
60370;SDS011;48550;40.588;49.684;2023-03-04T16:28:38;10.15;;;4.53;;
60370;SDS011;48550;40.588;49.684;2023-03-04T16:31:06;8.55;;;4.55;;
60370;SDS011;48550;40.588;49.684;2023-03-04T16:33:32;7.63;;;5.00;;
60370;SDS011;48550;40.588;49.684;2023-03-04T16:35:57;16.08;;;6.55;;
60370;SDS011;48550;40.588;49.684;2023-03-04T16:38:24;15.27;;;6.15;;
60370;SDS011;48550;40.588;49.684;2023-03-04T16:40:54;14.95;;;7.03;;
60370;SDS011;48550;40.588;49.684;2023-03-04T16:43:20;13.77;;;5.93;;
60370;SDS011;48550;40.588;49.684;2023-03-04T16:45:47;13.57;;;6.63;;
60370;SDS011;48550;40.588;49.684;2023-03-04T16:48:13;15.18;;;5.82;;
60370;SDS011;48550;40.588;49.684;2023-03-04T16:50:42;16.38;;;7.15;;
60370;SDS011;48550;40.588;49.684;2023-03-04T16:53:25;14.40;;;6.70;;
60370;SDS011;48550;40.588;49.684;2023-03-04T16:56:09;14.10;;;7.40;;